« Back
NWS Peachtree City, Ga » Text Product » MCN Terminal Aerodrome Forecast


Printer-friendly Version
Current Version              Previous Versions:   1  2  3  4  5  6  7  8  9  

Terminal Aerodrome Forecast

313
FTUS42 KFFC 010300 AAA
TAFMCN
TAF AMD
KMCN 010313Z 0103/0124 00000KT P6SM SKC
      TEMPO 0103/0106 2SM BR
     FM010600 00000KT 2SM BR SCT008 SCT030
     FM011400 23005KT P6SM SCT040=



USA.gov is the U.S. government's official web portal to all federal, state and local government web resources and services.